航空気象通報

ウインドサーファーのための航空気象通報による風予報です。

5/31-6/1の航空気象通報(国内、海外)

2007年05月31日 19時55分20秒 | TAF
5/30-31の航空気象通報(国内、海外)

羽田空港
TAF RJTT 310846Z 311812 03006KT 8000 FEW010 BKN020
BECMG 0003 09010KT
日本時間1日03-09時:030度から6ノットの風
09-12時:風が変化
12-21時:090度から10ノットの風


那覇空港
ROAH 310840Z 311812 08005KT 9999 FEW020 SCT045
BECMG 2124 11006KT
日本時間1日03-06時:080度から5ノットの風
06-09時:風が変化
09-21時:110度から6ノットの風


マウイのカフルイ空港
PHOG 311120Z 311212 04011KT P6SM FEW050
FM2000 04018G24KT P6SM FEW050
FM0600 04011KT P6SM SCT050
ハワイ時間31日02-10時:040度から11ノットの風
10-20時:040度から18ノット、突風24ノット
20時-1日02時:040度から11ノットの風


サイパン空港
PGSN 311134Z 311212 09011KT P6SM VCSH SCT020 SCT040
マリアナ時間31日22時-1日22時:090度から11ノットの風


グアム空港
TAFPQ TAF PGUM 311134Z 311212 09011KT P6SM VCSH SCT020 SCT040
マリアナ時間31日22時-1日22時:090度から11ノットの風

コメント
この記事をはてなブックマークに追加

5/30-31の航空気象通報(国内、海外)

2007年05月30日 20時05分02秒 | TAF
羽田空港
TAF RJTT 300842Z 301812 03008KT 9000 FEW020 BKN030
BECMG 0003 07008KT
日本時間31日03-09時:030度から8ノットの風
09-12時:風が変化
12-21時:070度から8ノットの風


那覇空港
ROAH 300849Z 301812 01008KT 9999 FEW015
日本時間31日03-21時:010度から8ノットの風


マウイのカフルイ空港
PHOG 301125Z 301212 02011KT P6SM SCT050
FM2000 03015KT P6SM SCT050
FM0600 VRB05KT P6SM SCT050
ハワイ時間30日02-10時:020度から11ノットの風
10-20時:030度から15ノットの風
20時-31日02時:風向不定3ノットの風


サイパン空港
PGSN 301122Z 301212 10008KT P6SM VCSH SCT020
マリアナ時間30日22時-31日22時:100度から8ノットの風


グアム空港
TAFPQ TAF PGUM 301122Z 301212 09006KT P6SM VCSH SCT020
マリアナ時間30日22時-31日22時:090度から6ノットの風

コメント
この記事をはてなブックマークに追加

5/29-30の航空気象通報(国内、海外)

2007年05月29日 22時32分00秒 | TAF
羽田空港
TAF RJTT 290840Z 291812 03010KT 9000 FEW008 SCT015 BKN030
TEMPO 1824 4000 -RA BR
BECMG 2124 12008KT
日本時間30日03-06時:030度から10ノットの風
06-09時:風が変化
09-21時:120度から8ノットの風
、但し03-09時:一時、

那覇空港
ROAH 290847Z 291812 32012KT 9999 FEW010 SCT020
日本時間30日03-21時:320度から12ノットの風


マウイのカフルイ空港
PHOG 291141Z 291212 02008KT P6SM SCT050
FM2000 03015G25KT P6SM SCT050
FM0600 03010KT P6SM SCT050
ハワイ時間29日02-10時:020度から8ノットの風
10-20時:030度から15ノット、突風25ノット
20時-30日02時:030度から10ノットの風


サイパン空港
PGSN 291137Z 291212 09010KT P6SM VCSH SCT020 SCT040
FM1800 08015KT P6SM VCSH SCT020 SCT050
マリアナ時間29日22時-30日04時:090度から10ノットの風
04-22時:080度から15ノットの風


グアム空港
TAFPQ TAF PGUM 291137Z 291212 09010KT P6SM VCSH SCT020 SCT040
FM1800 08015KT P6SM VCSH SCT020 SCT050
マリアナ時間29日22時-30日04時:090度から10ノットの風
04-22時:080度から15ノットの風

コメント
この記事をはてなブックマークに追加

5/28-29の航空気象通報(国内、海外)

2007年05月28日 20時57分20秒 | TAF
羽田空港
TAF RJTT 280841Z 281812 03006KT 9999 FEW030 SCT050
BECMG 2124 09006KT
BECMG 0306 18012KT
日本時間29日03-06時:030度から6ノットの風
06-09時:風が変化
09-12時:090度から6ノットの風
12-15時:風が変化
15-21時:180度から12ノットの風


那覇空港
ROAH 280845Z 281812 21010KT 8000 FEW008 SCT015
TEMPO 0306 4000 SHRA
日本時間29日03-21時:210度から10ノットの風
、但し、12-15時:一時、

マウイのカフルイ空港
PHOG 281135Z 281212 05013KT P6SM BKN050
FM2000 05017G27KT P6SM FEW030 SCT050
FM0600 05013KT P6SM SCT050
ハワイ時間28日02-10時:050度から13ノットの風

10-20時:050度から17ノット、突風27ノット
20時-29日02時:050度から13ノットの風


サイパン空港
PGSN 281120Z 281212 08010KT P6SM VCSH SCT020
マリアナ時間28日22時-29日22時:080度から10ノットの風


グアム空港
TAFPQ TAF PGUM 281120Z 281212 09010KT P6SM VCSH SCT020
マリアナ時間28日22時-29日22時:090度から10ノットの風

コメント
この記事をはてなブックマークに追加

5/28の航空気象通報(国内)

2007年05月27日 20時10分54秒 | TAF
羽田空港
TAF RJTT 270840Z 271812 03016KT 9999 FEW030
日本時間28日03-21時:030度から16ノットの風


那覇空港
ROAH 270842Z 271812 21008KT 8000 FEW008 SCT010
TEMPO 1824 FEW005 BKN007
日本時間28日03-21時:210度から8ノットの風
、但し、03-09時:一時、

マウイのカフルイ空港
PHOG 271124Z 271212 04010KT P6SM FEW040
FM1900 05015G24KT P6SM FEW030 SCT050
FM0600 05010KT P6SM BKN050
ハワイ時間27日02-09時:040度から10ノットの風
09-20時:050度から15ノット、突風24ノット

20時-28日02時:050度から10ノットの風


サイパン空港
PGSN 271211Z 271212 07009KT P6SM VCSH SCT020
マリアナ時間27日22時-28日22時:070度から9ノットの風


グアム空港
TAFPQ TAF PGUM 271211Z 271212 09009KT P6SM VCSH SCT020
マリアナ時間27日22時-28日22時:090度から9ノットの風

コメント
この記事をはてなブックマークに追加